Archival Weather

Falcon Fld

Mesa, Arizona (KFFZ)

Report from: Wednesday, December 6, 2023 4:54 AM MST
Current time: Wednesday, April 24, 2024 12:53 PM MST

Current weather – Weather history – Daily summaries
Weather forecast

Temperature17.8°C (64.0°F)
Dew point0.0°C (32.0°F)
Winds 8 kts (4.1 m/s, 9.2 mph) Northeast (40°)
Visibility10 mi. (16.1 km)
Clouds Sky clear
Altimeter30.09 in.Hg (1019 mB)
Relative humidity30 %
Density altitude295 ft. (90 m)
Sea-level pressure101.7 kPa (1017 mB, 30.04 in.Hg)
Max temp last 6 hours20.6°C (69.1°F)
Min temp last 6 hours17.2°C (63.0°F)
Remarks Fully automated report
Automated weather observing station with precipitation discriminator
Pressure falling more quickly
Flight conditions Visual Meteorological Conditions
Raw dataKFFZ 061154Z AUTO 04008KT 10SM CLR 18/00 A3009 RMK AO2 SLP171 T01780000 10206 20172 58006
An error has occurred. This application may no longer respond until reloaded. Reload 🗙